Time;durP1;ratioP1;P1;durP2;ratioP2;P2;SDS_P1;SDS_P2;PMS_P1;PMS_P2;Temp;Humidity;BMP_temperature;BMP_pressure;BME280_temperature;BME280_humidity;BME280_pressure;Samples;Min_cycle;Max_cycle;Signal;HPM_P1;HPM_P2
2022/08/06 00:02:20;;;;;;;13.27;5.97;;;;;;;25.16;60.34;99861.28;5133604;28;20399;-75
2022/08/06 00:04:53;;;;;;;11.75;5.63;;;;;;;24.89;61.29;99862.88;5132930;28;20134;-73
2022/08/06 00:07:22;;;;;;;10.13;5.85;;;;;;;24.81;62.88;99852.97;5133487;27;20039;-73
2022/08/06 00:09:54;;;;;;;11.63;5.78;;;;;;;24.75;62.07;99856.44;5134081;28;20047;-73
2022/08/06 00:12:27;;;;;;;8.65;5.57;;;;;;;24.63;62.42;99856.13;5133511;27;20063;-74
2022/08/06 00:14:57;;;;;;;12.77;6.05;;;;;;;24.60;62.54;99858.38;5133879;28;20043;-73
2022/08/06 00:17:27;;;;;;;14.15;6.63;;;;;;;24.53;65.68;99863.75;5115884;28;20061;-73
2022/08/06 00:20:01;;;;;;;11.18;5.57;;;;;;;24.65;63.84;99864.09;5113362;28;20119;-73
2022/08/06 00:22:31;;;;;;;7.63;5.60;;;;;;;24.67;63.80;99853.84;5113043;28;20042;-73
2022/08/06 00:25:00;;;;;;;12.43;6.20;;;;;;;24.54;63.51;99860.84;5142394;27;20046;-73
2022/08/06 00:27:28;;;;;;;10.43;5.90;;;;;;;24.44;64.74;99860.31;5154395;27;20042;-73
2022/08/06 00:30:07;;;;;;;10.05;5.82;;;;;;;24.50;63.41;99862.25;5154662;27;20039;-73
2022/08/06 00:32:47;;;;;;;8.63;5.95;;;;;;;24.47;62.99;99864.53;5154457;27;20047;-73
2022/08/06 00:35:21;;;;;;;13.77;5.78;;;;;;;24.39;64.53;99865.47;5154489;27;20042;-77
2022/08/06 00:37:55;;;;;;;9.88;5.82;;;;;;;24.30;66.97;99855.69;5153334;27;20419;-73
2022/08/06 00:40:29;;;;;;;11.85;5.85;;;;;;;24.21;67.49;99870.44;5152793;27;20043;-74
2022/08/06 00:42:58;;;;;;;10.35;5.88;;;;;;;24.35;62.91;99855.16;5154476;27;20138;-73
2022/08/06 00:45:29;;;;;;;8.48;5.90;;;;;;;24.57;59.62;99866.94;5153897;27;20436;-73
2022/08/06 00:48:00;;;;;;;10.45;5.95;;;;;;;24.50;60.35;99870.44;5154258;27;20047;-72
2022/08/06 00:50:35;;;;;;;7.55;5.90;;;;;;;24.44;58.98;99873.94;5154054;27;20110;-75
2022/08/06 00:53:06;;;;;;;11.93;6.32;;;;;;;24.33;59.85;99868.97;5154186;27;20038;-74
2022/08/06 00:55:40;;;;;;;12.25;6.03;;;;;;;24.34;59.67;99867.94;5154079;27;20049;-73
2022/08/06 00:58:28;;;;;;;9.65;6.07;;;;;;;24.26;59.18;99865.28;5154020;27;20435;-73
2022/08/06 01:01:08;;;;;;;9.90;6.13;;;;;;;24.24;58.15;99870.09;5154040;27;20055;-73
2022/08/06 01:03:46;;;;;;;8.70;5.75;;;;;;;24.14;60.13;99867.66;5154151;27;20049;-73
2022/08/06 01:06:20;;;;;;;9.35;6.18;;;;;;;24.08;60.82;99859.38;5154232;27;20054;-72
2022/08/06 01:09:08;;;;;;;9.07;6.07;;;;;;;24.03;62.38;99867.25;5157507;27;20050;-73
2022/08/06 01:11:37;;;;;;;8.43;5.90;;;;;;;24.06;63.13;99861.44;5157827;27;20070;-74
2022/08/06 01:14:05;;;;;;;9.93;5.88;;;;;;;24.03;62.83;99859.09;5156506;27;20047;-72
2022/08/06 01:16:40;;;;;;;11.32;6.38;;;;;;;24.19;61.41;99861.63;5157480;27;20046;-74
2022/08/06 01:19:33;;;;;;;9.02;5.95;;;;;;;24.13;61.61;99859.66;5157990;27;20531;-74
2022/08/06 01:22:48;;;;;;;9.85;6.05;;;;;;;24.10;61.20;99852.69;5156403;27;20514;-76
2022/08/06 01:25:54;;;;;;;10.60;5.97;;;;;;;24.14;60.92;99858.63;5157572;27;20081;-74
2022/08/06 01:28:29;;;;;;;12.73;6.40;;;;;;;24.12;61.96;99853.34;5157220;27;20487;-74
2022/08/06 01:31:05;;;;;;;8.27;5.95;;;;;;;24.18;61.27;99849.03;5157433;27;20122;-73
2022/08/06 01:33:42;;;;;;;11.10;6.18;;;;;;;24.10;61.49;99858.16;5156959;27;20038;-73
2022/08/06 01:36:20;;;;;;;10.07;5.97;;;;;;;24.18;60.95;99854.47;5156320;27;20556;-74
2022/08/06 01:38:59;;;;;;;9.60;5.88;;;;;;;24.05;61.73;99855.16;5157423;27;20113;-73
2022/08/06 01:41:41;;;;;;;11.65;6.32;;;;;;;24.04;62.15;99853.47;5157071;27;20049;-74
2022/08/06 01:44:34;;;;;;;10.63;6.05;;;;;;;24.12;61.34;99841.59;5157076;27;20045;-75
2022/08/06 01:47:09;;;;;;;10.13;6.05;;;;;;;24.06;62.24;99851.41;5157275;27;20126;-73
2022/08/06 01:49:48;;;;;;;10.70;6.53;;;;;;;23.88;64.91;99854.50;5156844;27;20046;-72
2022/08/06 01:52:34;;;;;;;12.68;6.88;;;;;;;23.79;65.23;99854.78;5157004;27;20039;-72
2022/08/06 01:55:07;;;;;;;11.90;6.68;;;;;;;23.74;65.84;99847.19;5156970;27;20387;-72
2022/08/06 01:57:42;;;;;;;9.48;6.03;;;;;;;23.67;66.85;99851.69;5156677;27;20073;-72
2022/08/06 02:00:34;;;;;;;10.70;6.38;;;;;;;23.63;65.48;99850.34;5156431;27;20046;-74
2022/08/06 02:03:09;;;;;;;11.05;6.30;;;;;;;23.59;68.63;99849.03;5157065;27;20043;-73
2022/08/06 02:05:44;;;;;;;13.85;6.32;;;;;;;23.45;69.18;99847.97;5156654;27;20043;-71
2022/08/06 02:08:23;;;;;;;12.13;6.32;;;;;;;23.30;70.14;99844.34;5156930;27;20042;-72
2022/08/06 02:11:10;;;;;;;9.48;6.40;;;;;;;23.27;69.86;99853.75;5156933;27;20058;-72
2022/08/06 02:14:01;;;;;;;12.63;6.15;;;;;;;23.33;68.44;99850.25;5156804;27;20122;-71
2022/08/06 02:16:34;;;;;;;;;;;;;;;23.29;69.35;99854.41;5156781;27;20038;-71
2022/08/06 02:19:04;;;;;;;10.25;6.53;;;;;;;23.23;69.01;99854.28;5156491;27;19919;-71
2022/08/06 02:21:42;;;;;;;10.70;6.53;;;;;;;23.24;69.50;99853.25;5156316;27;20049;-69
2022/08/06 02:24:18;;;;;;;12.45;6.47;;;;;;;23.09;70.94;99855.94;5156569;27;20042;-68
2022/08/06 02:26:48;;;;;;;9.50;6.78;;;;;;;23.13;70.06;99859.97;5156040;27;20035;-69
2022/08/06 02:29:19;;;;;;;11.02;6.07;;;;;;;23.27;68.46;99851.00;5156251;27;20463;-70
2022/08/06 02:31:51;;;;;;;10.47;6.40;;;;;;;23.32;69.10;99848.56;5155960;27;20554;-68
2022/08/06 02:34:20;;;;;;;9.63;6.28;;;;;;;23.40;67.88;99851.22;5156115;27;20263;-68
2022/08/06 02:37:07;;;;;;;10.55;6.40;;;;;;;23.28;68.83;99849.97;5156277;27;20042;-70
2022/08/06 02:39:45;;;;;;;8.95;6.22;;;;;;;23.07;69.48;99850.69;5155820;27;20074;-70
2022/08/06 02:42:23;;;;;;;12.57;5.82;;;;;;;23.11;68.44;99853.88;5156012;27;20077;-70
2022/08/06 02:45:01;;;;;;;10.65;6.00;;;;;;;23.24;68.24;99855.97;5156135;27;20043;-70
2022/08/06 02:47:37;;;;;;;10.45;6.00;;;;;;;23.25;67.07;99853.06;5155536;27;20379;-70
2022/08/06 02:50:31;;;;;;;9.02;6.03;;;;;;;23.40;65.82;99845.78;5156058;27;20042;-68
2022/08/06 02:53:09;;;;;;;8.38;6.07;;;;;;;23.27;66.89;99855.63;5156119;27;20543;-69
2022/08/06 02:55:58;;;;;;;11.75;5.72;;;;;;;23.28;66.95;99852.72;5155438;27;20046;-68
2022/08/06 02:58:32;;;;;;;11.02;6.20;;;;;;;23.30;66.73;99845.19;5155758;27;20066;-69
2022/08/06 03:01:10;;;;;;;10.35;6.22;;;;;;;23.10;68.11;99855.75;5155852;27;20054;-70
2022/08/06 03:03:43;;;;;;;10.05;6.43;;;;;;;23.08;68.48;99851.53;5155540;27;20486;-70
2022/08/06 03:06:28;;;;;;;8.90;5.88;;;;;;;23.09;68.43;99853.22;5155599;27;20035;-70
2022/08/06 03:08:59;;;;;;;9.98;6.40;;;;;;;22.95;69.08;99851.25;5155490;27;20386;-69
2022/08/06 03:11:31;;;;;;;8.10;6.07;;;;;;;22.94;69.90;99849.56;5155400;27;20072;-70
2022/08/06 03:14:01;;;;;;;10.63;5.97;;;;;;;22.82;70.54;99849.97;5155410;27;20043;-69
2022/08/06 03:16:42;;;;;;;8.35;6.30;;;;;;;22.74;71.26;99855.47;5155440;27;20042;-69
2022/08/06 03:19:16;;;;;;;11.30;6.75;;;;;;;22.81;71.37;99863.75;5155402;27;20506;-71
2022/08/06 03:22:06;;;;;;;9.50;5.90;;;;;;;22.96;70.76;99852.97;5155429;27;20098;-68
2022/08/06 03:24:40;;;;;;;12.13;6.30;;;;;;;22.97;70.19;99852.81;5155136;27;20055;-68
2022/08/06 03:27:11;;;;;;;8.45;6.50;;;;;;;23.00;70.45;99849.72;5155408;27;20464;-69
2022/08/06 03:29:44;;;;;;;8.82;6.40;;;;;;;23.03;70.38;99848.50;5154845;27;20042;-69
2022/08/06 03:32:14;;;;;;;9.30;6.22;;;;;;;23.01;70.76;99848.69;5154982;27;20121;-69
2022/08/06 03:35:05;;;;;;;9.32;6.07;;;;;;;22.79;72.45;99853.06;5155168;27;20112;-69
2022/08/06 03:37:34;;;;;;;8.60;6.32;;;;;;;22.65;73.48;99858.41;5154981;27;20046;-71
2022/08/06 03:40:25;;;;;;;11.23;6.35;;;;;;;22.61;73.58;99852.50;5154824;27;20046;-69
2022/08/06 03:42:53;;;;;;;10.00;6.90;;;;;;;22.71;73.04;99861.28;5154576;27;20391;-69
2022/08/06 03:45:22;;;;;;;10.13;6.95;;;;;;;22.64;73.63;99859.44;5155119;27;20039;-69
2022/08/06 03:48:15;;;;;;;11.90;6.70;;;;;;;22.62;73.67;99861.50;5154862;27;20121;-70
2022/08/06 03:51:10;;;;;;;9.05;6.72;;;;;;;22.52;74.55;99862.56;5154783;27;20053;-70
2022/08/06 03:53:41;;;;;;;11.93;6.93;;;;;;;22.40;75.27;99863.16;5154719;27;20058;-70
2022/08/06 03:56:21;;;;;;;9.75;6.90;;;;;;;22.56;74.64;99863.06;5154965;27;20038;-70
2022/08/06 03:59:01;;;;;;;9.40;6.85;;;;;;;22.57;74.40;99864.75;5154750;27;20047;-70
2022/08/06 04:01:35;;;;;;;9.48;6.78;;;;;;;22.81;72.68;99867.31;5155107;27;20479;-70
2022/08/06 04:04:18;;;;;;;9.00;6.63;;;;;;;22.58;73.67;99861.00;5154896;27;20043;-69
2022/08/06 04:06:57;;;;;;;10.10;6.93;;;;;;;22.94;72.44;99865.91;5154414;27;20403;-69
2022/08/06 04:09:26;;;;;;;9.23;6.25;;;;;;;23.17;70.80;99865.91;5154566;27;20042;-71
2022/08/06 04:12:15;;;;;;;10.25;6.65;;;;;;;23.88;67.09;99875.44;5154770;27;20054;-69
2022/08/06 04:15:06;;;;;;;9.07;6.22;;;;;;;24.55;63.42;99872.59;5154612;27;20088;-70
2022/08/06 04:17:38;;;;;;;7.47;6.07;;;;;;;25.02;60.73;99874.81;5154298;27;20495;-71
2022/08/06 04:20:11;;;;;;;11.75;6.20;;;;;;;25.23;59.08;99871.22;5154574;27;20137;-70
2022/08/06 04:22:41;;;;;;;9.00;6.00;;;;;;;25.08;59.59;99882.22;5152994;27;20173;-68
2022/08/06 04:25:35;;;;;;;8.68;5.88;;;;;;;25.37;58.19;99883.94;5154517;27;20042;-69
2022/08/06 04:28:06;;;;;;;7.78;5.55;;;;;;;25.39;58.16;99883.78;5153280;27;20054;-68
2022/08/06 04:30:38;;;;;;;8.07;5.95;;;;;;;25.68;57.41;99888.19;5154372;27;20428;-69
2022/08/06 04:33:16;;;;;;;8.55;5.50;;;;;;;25.52;56.53;99886.59;5154686;27;20066;-68
2022/08/06 04:35:47;;;;;;;8.20;5.90;;;;;;;24.68;59.42;99888.25;5154380;27;20383;-68
2022/08/06 04:38:38;;;;;;;8.43;5.53;;;;;;;24.72;59.76;99893.16;5154075;27;20051;-71
2022/08/06 04:41:07;;;;;;;10.18;5.90;;;;;;;24.97;59.47;99901.78;5154673;27;20039;-68
2022/08/06 04:43:44;;;;;;;7.55;5.70;;;;;;;25.25;58.30;99896.44;5157001;27;20535;-69
2022/08/06 04:46:22;;;;;;;9.32;6.47;;;;;;;25.20;58.28;99892.63;5158561;27;20466;-68
2022/08/06 04:48:54;;;;;;;11.15;6.03;;;;;;;24.99;59.80;99902.44;5157900;27;20142;-68
2022/08/06 04:51:28;;;;;;;7.57;5.63;;;;;;;25.59;57.56;99901.16;5158139;27;20042;-69
2022/08/06 04:54:18;;;;;;;9.52;5.63;;;;;;;26.61;53.71;99897.81;5158255;27;20038;-69
2022/08/06 04:56:54;;;;;;;9.65;5.25;;;;;;;26.78;52.54;99898.28;5156545;27;20042;-68
2022/08/06 04:59:26;;;;;;;7.72;5.57;;;;;;;27.76;48.71;99891.28;5158036;27;20035;-68
2022/08/06 05:02:14;;;;;;;8.75;5.22;;;;;;;27.98;48.22;99891.03;5158224;27;20497;-69
2022/08/06 05:04:44;;;;;;;9.05;5.32;;;;;;;27.87;47.98;99890.63;5157808;27;20049;-69
2022/08/06 05:07:17;;;;;;;7.43;5.80;;;;;;;27.03;50.82;99898.63;5158120;27;20035;-68
2022/08/06 05:09:51;;;;;;;9.43;5.70;;;;;;;26.77;52.14;99900.19;5157542;27;20038;-68
2022/08/06 05:12:28;;;;;;;9.05;5.75;;;;;;;26.74;51.73;99902.50;5158084;27;20501;-67
2022/08/06 05:15:15;;;;;;;8.25;5.28;;;;;;;26.49;52.84;99899.44;5157699;27;20894;-68
2022/08/06 05:17:54;;;;;;;6.82;5.45;;;;;;;26.80;52.17;99902.50;5156100;27;20502;-68
2022/08/06 05:20:23;;;;;;;8.82;5.43;;;;;;;27.27;50.81;99898.00;5157890;27;20070;-69
2022/08/06 05:23:01;;;;;;;8.82;5.40;;;;;;;27.97;48.08;99897.56;5157473;27;20103;-68
2022/08/06 05:25:36;;;;;;;8.15;5.43;;;;;;;28.69;46.64;99902.03;5157732;27;20047;-68
2022/08/06 05:28:05;;;;;;;7.80;5.22;;;;;;;28.81;45.02;99900.25;5156487;27;20074;-68
2022/08/06 05:30:43;;;;;;;7.88;5.38;;;;;;;29.79;43.09;99897.06;5157466;27;20047;-75
2022/08/06 05:33:13;;;;;;;9.63;5.05;;;;;;;30.11;42.42;99900.56;5157509;27;20053;-70
2022/08/06 05:35:44;;;;;;;7.70;5.50;;;;;;;30.18;41.46;99893.09;5157357;27;20034;-70
2022/08/06 05:38:33;;;;;;;8.40;4.82;;;;;;;30.17;41.47;99897.75;5157369;27;20285;-68
2022/08/06 05:41:07;;;;;;;7.68;5.00;;;;;;;30.63;40.16;99904.63;5157197;27;20070;-69
2022/08/06 05:43:36;;;;;;;8.00;4.50;;;;;;;30.49;40.19;99908.59;5157449;27;20489;-69
2022/08/06 05:46:25;;;;;;;7.95;4.38;;;;;;;31.19;38.74;99905.34;5157349;27;20483;-68
2022/08/06 05:49:03;;;;;;;9.60;4.50;;;;;;;30.31;39.86;99912.22;5156759;27;20077;-69
2022/08/06 05:51:57;;;;;;;6.43;4.28;;;;;;;31.24;38.60;99911.84;5156825;27;20053;-70
2022/08/06 05:54:32;;;;;;;9.45;4.15;;;;;;;31.80;37.13;99910.53;5133000;27;20086;-68
2022/08/06 05:57:06;;;;;;;7.90;4.60;;;;;;;31.89;36.64;99920.13;5127363;27;20050;-69
2022/08/06 05:59:38;;;;;;;6.15;4.03;;;;;;;31.42;37.10;99915.63;5133066;27;20047;-69
2022/08/06 06:02:28;;;;;;;5.82;4.13;;;;;;;31.61;37.00;99917.22;5132728;27;20502;-70
2022/08/06 06:05:00;;;;;;;8.75;4.18;;;;;;;31.80;36.94;99913.31;5133142;27;20109;-72
2022/08/06 06:07:50;;;;;;;8.32;4.03;;;;;;;32.09;35.57;99917.00;5132471;27;20043;-69
2022/08/06 06:10:40;;;;;;;6.25;3.78;;;;;;;31.30;36.28;99921.94;5135811;27;20043;-70
2022/08/06 06:13:23;;;;;;;7.43;4.17;;;;;;;31.97;34.83;99912.59;5134843;27;20043;-71
2022/08/06 06:16:23;;;;;;;6.63;3.95;;;;;;;32.90;33.15;99909.66;5135989;27;20859;-74
2022/08/06 06:19:11;;;;;;;6.25;4.10;;;;;;;33.10;32.32;99919.44;5135628;27;20425;-71
2022/08/06 06:21:52;;;;;;;6.70;4.10;;;;;;;32.45;32.83;99923.38;5135861;27;20051;-72
2022/08/06 06:24:33;;;;;;;6.65;3.97;;;;;;;32.43;33.61;99922.78;5134725;27;20048;-69
2022/08/06 06:27:08;;;;;;;7.10;3.97;;;;;;;33.41;31.47;99932.75;5135809;27;20049;-71
2022/08/06 06:30:01;;;;;;;7.70;4.13;;;;;;;33.43;31.99;99940.81;5135649;27;20050;-70
2022/08/06 06:32:46;;;;;;;6.77;4.03;;;;;;;33.11;31.15;99949.59;5135696;27;20058;-74
2022/08/06 06:35:27;;;;;;;6.18;3.83;;;;;;;33.35;30.73;99955.00;5135621;27;20432;-74
2022/08/06 06:38:16;;;;;;;6.65;4.15;;;;;;;33.02;31.43;99942.78;5134234;27;20489;-73
2022/08/06 06:40:52;;;;;;;7.97;3.80;;;;;;;33.60;31.66;99941.66;5135566;27;20074;-74
2022/08/06 06:43:46;;;;;;;9.35;3.72;;;;;;;33.89;30.36;99952.69;5135251;27;20153;-72
2022/08/06 06:46:28;;;;;;;5.43;3.70;;;;;;;33.92;30.17;99938.31;5135655;27;20404;-76
2022/08/06 06:49:17;;;;;;;6.03;3.83;;;;;;;34.06;29.98;99934.94;5135353;27;20050;-73
2022/08/06 06:52:10;;;;;;;7.07;3.50;;;;;;;33.62;30.82;99941.41;5135521;27;20049;-69
2022/08/06 06:54:43;;;;;;;8.93;4.00;;;;;;;33.18;31.59;99943.91;5137683;27;20130;-74
2022/08/06 06:57:19;;;;;;;8.27;3.85;;;;;;;33.34;31.95;99943.09;5135395;27;20118;-73
2022/08/06 06:59:53;;;;;;;13.30;4.07;;;;;;;33.58;31.43;99941.88;5133466;27;20059;-70
2022/08/06 07:02:48;;;;;;;5.60;3.78;;;;;;;33.64;31.45;99950.28;5134889;27;20043;-73
2022/08/06 07:05:17;;;;;;;7.07;4.20;;;;;;;32.21;34.01;99941.81;5134397;27;20066;-72
2022/08/06 07:08:07;;;;;;;6.68;4.25;;;;;;;32.01;34.70;99949.63;5134642;27;20498;-73
2022/08/06 07:10:40;;;;;;;7.43;4.63;;;;;;;31.40;35.36;99948.94;5133605;27;20384;-74
2022/08/06 07:13:11;;;;;;;5.95;4.10;;;;;;;31.26;36.13;99952.94;5133581;27;20411;-74
2022/08/06 07:15:43;;;;;;;8.52;4.70;;;;;;;31.01;36.17;99959.41;5134921;27;20046;-74
2022/08/06 07:18:26;;;;;;;8.00;4.18;;;;;;;31.01;36.72;99953.91;5134455;27;20403;-75
2022/08/06 07:21:03;;;;;;;8.75;4.53;;;;;;;30.62;36.88;99946.97;5134631;27;20100;-77
2022/08/06 07:23:32;;;;;;;8.20;4.43;;;;;;;30.26;37.62;99952.47;5134687;27;20384;-77
2022/08/06 07:26:23;;;;;;;8.68;4.40;;;;;;;30.72;36.63;99955.56;5134895;27;20408;-76
2022/08/06 07:28:52;;;;;;;7.22;4.65;;;;;;;30.50;36.60;99959.84;5133173;27;20047;-77
2022/08/06 07:31:31;;;;;;;7.75;4.40;;;;;;;30.61;36.37;99955.47;5134355;27;20054;-77
2022/08/06 07:34:05;;;;;;;6.72;4.22;;;;;;;30.49;36.38;99964.47;5134053;27;20043;-77
2022/08/06 07:36:40;;;;;;;7.13;4.45;;;;;;;30.32;36.43;99959.81;5134725;27;20069;-77
2022/08/06 07:39:11;;;;;;;6.15;4.32;;;;;;;30.24;36.53;99955.44;5134611;27;20041;-80
2022/08/06 07:41:44;;;;;;;10.38;4.20;;;;;;;30.32;37.21;99957.06;5134556;27;20050;-77
2022/08/06 07:44:36;;;;;;;7.03;4.35;;;;;;;30.02;37.19;99957.75;5134235;27;20039;-71
2022/08/06 07:47:28;;;;;;;6.03;4.05;;;;;;;30.14;37.55;99961.47;5133157;27;20467;-74
2022/08/06 07:50:15;;;;;;;6.07;4.68;;;;;;;30.15;37.99;99954.06;5133141;27;20058;-72
2022/08/06 07:52:44;;;;;;;8.40;4.13;;;;;;;30.01;38.08;99961.56;5134171;27;20043;-72
2022/08/06 07:55:14;;;;;;;9.98;4.47;;;;;;;30.12;38.09;99952.63;5134364;27;20471;-76
2022/08/06 07:57:43;;;;;;;6.78;4.13;;;;;;;30.36;36.54;99970.13;5133976;27;20449;-73
2022/08/06 08:00:26;;;;;;;8.38;4.47;;;;;;;30.25;37.42;99959.03;5134373;27;20050;-71
2022/08/06 08:06:18;;;;;;;9.40;4.40;;;;;;;30.20;37.84;99955.03;5133990;28;20061;-78
2022/08/06 08:08:51;;;;;;;7.63;4.65;;;;;;;30.33;37.53;99959.59;5132797;28;20099;-81
2022/08/06 08:11:23;;;;;;;10.43;4.50;;;;;;;30.56;36.85;99953.38;5133877;27;20390;-83
2022/08/06 08:14:12;;;;;;;6.97;4.55;;;;;;;30.68;37.09;99959.81;5113128;28;20042;-78
2022/08/06 08:16:43;;;;;;;6.68;4.43;;;;;;;30.72;36.66;99951.97;5114844;28;20040;-79
2022/08/06 08:19:26;;;;;;;7.47;4.05;;;;;;;30.72;35.84;99960.22;5117551;28;20050;-76
2022/08/06 08:22:06;;;;;;;6.10;4.20;;;;;;;30.75;36.79;99965.25;5117716;28;20047;-77
2022/08/06 08:24:36;;;;;;;8.35;4.50;;;;;;;30.94;36.51;99966.09;5118252;28;20044;-76
2022/08/06 08:27:08;;;;;;;8.18;4.75;;;;;;;30.84;36.59;99963.88;5117424;28;20476;-76
2022/08/06 08:29:50;;;;;;;7.93;4.07;;;;;;;30.73;36.06;99959.16;5117267;28;20047;-74
2022/08/06 08:32:25;;;;;;;8.15;4.05;;;;;;;30.76;36.32;99966.94;5116072;28;20126;-74
2022/08/06 08:34:53;;;;;;;6.07;4.20;;;;;;;30.67;36.29;99955.41;5116979;28;20070;-75
2022/08/06 08:37:26;;;;;;;5.65;4.20;;;;;;;30.88;35.29;99955.97;5117233;28;20479;-73
2022/08/06 08:40:00;;;;;;;6.35;4.15;;;;;;;30.83;35.12;99961.34;5117022;28;20122;-72
2022/08/06 08:42:35;;;;;;;8.15;4.35;;;;;;;30.90;36.02;99959.38;5115655;28;20054;-73
2022/08/06 08:45:06;;;;;;;7.10;4.32;;;;;;;31.00;34.86;99968.75;5117039;28;20217;-78
2022/08/06 08:47:45;;;;;;;6.65;4.40;;;;;;;30.91;35.32;99961.06;5116993;28;20459;-77
2022/08/06 08:50:24;;;;;;;6.35;4.30;;;;;;;31.04;35.23;99969.13;5116900;28;20142;-75
2022/08/06 08:53:01;;;;;;;5.88;3.90;;;;;;;31.35;33.61;99957.03;5116215;28;20118;-75
2022/08/06 08:55:33;;;;;;;8.65;3.65;;;;;;;31.40;34.33;99964.63;5115933;28;20053;-75
2022/08/06 08:58:22;;;;;;;7.43;3.80;;;;;;;31.43;33.79;99958.63;5115884;28;20048;-75
2022/08/06 09:01:11;;;;;;;7.10;4.00;;;;;;;31.44;33.67;99961.16;5114789;28;20063;-77
2022/08/06 09:04:03;;;;;;;5.00;3.80;;;;;;;31.41;33.45;99958.03;5116485;28;20442;-75
2022/08/06 09:06:32;;;;;;;6.47;3.40;;;;;;;31.58;31.40;99961.78;5116983;28;20048;-75
2022/08/06 09:09:08;;;;;;;4.85;3.30;;;;;;;31.60;31.31;99956.88;5116761;28;20042;-75
2022/08/06 09:11:43;;;;;;;6.15;3.50;;;;;;;31.69;31.91;99958.22;5116491;28;20062;-75
2022/08/06 09:14:31;;;;;;;9.18;3.85;;;;;;;31.89;30.37;99967.03;5116630;28;20088;-75
2022/08/06 09:17:02;;;;;;;4.65;3.30;;;;;;;31.89;30.72;99956.00;5115244;28;20048;-74
2022/08/06 09:19:32;;;;;;;5.70;3.33;;;;;;;31.95;30.71;99959.72;5116684;28;20373;-75
2022/08/06 09:22:09;;;;;;;7.55;3.92;;;;;;;31.84;30.82;99966.88;5149299;27;20055;-77
2022/08/06 09:24:40;;;;;;;5.85;3.30;;;;;;;32.05;30.98;99968.25;5114951;28;20668;-75
2022/08/06 09:27:10;;;;;;;5.70;3.33;;;;;;;31.89;31.28;99964.25;5128156;27;20045;-75
2022/08/06 09:30:00;;;;;;;5.75;3.45;;;;;;;31.99;30.58;99973.88;5134384;27;20101;-75
2022/08/06 09:32:48;;;;;;;7.10;3.33;;;;;;;31.89;30.90;99969.78;5135628;27;20133;-74
2022/08/06 09:35:26;;;;;;;4.43;3.30;;;;;;;31.81;31.49;99966.53;5136992;27;20039;-75
2022/08/06 09:38:15;;;;;;;6.55;3.63;;;;;;;31.90;31.35;99965.94;5135375;27;20055;-76
2022/08/06 09:41:09;;;;;;;4.63;3.20;;;;;;;32.11;31.21;99971.94;5136781;27;20412;-75
2022/08/06 09:43:43;;;;;;;7.13;3.53;;;;;;;31.88;31.78;99968.09;5135269;27;20522;-75
2022/08/06 09:46:39;;;;;;;6.28;3.92;;;;;;;32.04;31.91;99954.66;5136901;27;20054;-82
2022/08/06 09:49:09;;;;;;;5.88;3.65;;;;;;;32.24;31.47;99955.16;5136474;27;20039;-77
2022/08/06 09:52:12;;;;;;;7.25;3.80;;;;;;;32.41;32.01;99949.75;5135237;27;20051;-84
2022/08/06 09:54:41;;;;;;;6.18;3.20;;;;;;;32.53;30.27;99955.28;5136794;27;20450;-83
2022/08/06 09:57:11;;;;;;;9.70;3.53;;;;;;;32.47;30.50;99944.13;5136232;27;20067;-78
2022/08/06 09:59:44;;;;;;;6.85;3.42;;;;;;;32.61;30.13;99946.59;5136098;27;20051;-89
2022/08/06 10:02:19;;;;;;;6.95;3.60;;;;;;;32.63;30.04;99953.56;5134946;27;20073;-80
2022/08/06 10:05:08;;;;;;;5.97;3.67;;;;;;;32.57;29.73;99953.69;5136275;27;20479;-76
2022/08/06 10:07:47;;;;;;;4.80;3.28;;;;;;;32.71;28.89;99944.03;5134934;27;20043;-81
2022/08/06 10:10:35;;;;;;;5.03;3.15;;;;;;;32.65;28.35;99950.56;5136391;27;20035;-76
2022/08/06 10:13:17;;;;;;;4.60;3.20;;;;;;;32.57;28.70;99948.19;5136079;27;20046;-75
2022/08/06 10:15:49;;;;;;;4.40;2.90;;;;;;;32.58;28.88;99945.16;5136227;27;20376;-79
2022/08/06 10:18:47;;;;;;;4.28;3.03;;;;;;;32.77;28.44;99945.00;5134654;27;20047;-80
2022/08/06 10:21:28;;;;;;;4.30;3.22;;;;;;;32.84;28.11;99943.81;5136303;27;20047;-74
2022/08/06 10:24:10;;;;;;;6.07;3.10;;;;;;;33.07;27.58;99947.56;5135486;27;20043;-77
2022/08/06 10:26:39;;;;;;;8.43;2.78;;;;;;;33.19;28.38;99940.03;5135672;27;20088;-73
2022/08/06 10:29:16;;;;;;;4.72;3.20;;;;;;;33.24;28.86;99948.44;5135757;27;20045;-79
2022/08/06 10:31:45;;;;;;;5.72;3.28;;;;;;;33.36;28.50;99934.59;5135866;27;20602;-78
2022/08/06 10:34:27;;;;;;;6.65;3.20;;;;;;;33.34;28.11;99943.09;5135874;27;20043;-77
2022/08/06 10:37:02;;;;;;;6.07;3.30;;;;;;;33.30;29.37;99941.94;5135600;27;20056;-79
2022/08/06 10:39:56;;;;;;;7.47;3.65;;;;;;;33.31;28.87;99949.13;5134908;27;20039;-76
2022/08/06 10:42:38;;;;;;;5.95;3.50;;;;;;;33.10;29.02;99944.28;5134333;27;20560;-77
2022/08/06 10:45:11;;;;;;;5.95;3.42;;;;;;;33.40;28.94;99947.69;5133897;27;20484;-77
2022/08/06 10:47:45;;;;;;;8.02;3.70;;;;;;;33.63;28.90;99945.84;5135527;27;20503;-76
2022/08/06 10:50:35;;;;;;;4.50;3.40;;;;;;;33.71;28.77;99942.66;5135549;27;20100;-76
2022/08/06 10:53:16;;;;;;;5.30;3.40;;;;;;;33.62;28.59;99944.19;5133686;27;20096;-76
2022/08/06 10:56:12;;;;;;;6.13;3.55;;;;;;;33.57;28.54;99947.69;5133993;27;20047;-76
2022/08/06 10:58:45;;;;;;;5.70;3.60;;;;;;;33.42;29.10;99939.97;5135390;27;20518;-73
2022/08/06 11:01:23;;;;;;;4.55;3.83;;;;;;;33.28;29.68;99936.63;5133510;27;20051;-74
2022/08/06 11:04:17;;;;;;;5.03;3.47;;;;;;;33.64;29.42;99931.75;5133728;27;20506;-76
2022/08/06 11:07:01;;;;;;;4.93;3.58;;;;;;;33.77;28.86;99941.66;5135439;27;20039;-74
2022/08/06 11:09:54;;;;;;;5.00;3.70;;;;;;;33.79;29.67;99928.44;5133736;27;20501;-73
2022/08/06 11:12:43;;;;;;;3.95;3.20;;;;;;;33.88;28.71;99920.56;5134964;27;20584;-74
2022/08/06 11:15:19;;;;;;;5.50;3.70;;;;;;;34.12;28.35;99922.88;5134657;27;20413;-72
2022/08/06 11:17:54;;;;;;;7.00;3.78;;;;;;;34.09;28.83;99917.84;5133652;27;20558;-74
2022/08/06 11:20:43;;;;;;;7.10;3.80;;;;;;;33.95;31.04;99919.28;5134229;27;20497;-75
2022/08/06 11:23:25;;;;;;;4.85;3.70;;;;;;;33.99;28.74;99917.69;5128800;27;20051;-74
2022/08/06 11:26:33;;;;;;;5.15;3.55;;;;;;;33.85;28.82;99924.63;5129827;27;20114;-76
2022/08/06 11:29:07;;;;;;;5.20;3.80;;;;;;;34.08;28.87;99913.41;5124719;27;20073;-72
2022/08/06 11:31:46;;;;;;;6.18;3.97;;;;;;;33.91;29.64;99904.28;5132751;27;20130;-74
2022/08/06 11:34:43;;;;;;;5.22;3.72;;;;;;;33.88;30.19;99903.97;5134210;27;20096;-78
2022/08/06 11:37:43;;;;;;;4.95;3.83;;;;;;;33.82;29.61;99897.47;5133934;27;20505;-77
2022/08/06 11:40:59;;;;;;;5.50;3.90;;;;;;;34.12;29.55;99900.72;5137356;27;20409;-76
2022/08/06 11:44:05;;;;;;;4.53;3.58;;;;;;;34.17;28.95;99907.44;5135177;27;20055;-75
2022/08/06 11:46:35;;;;;;;5.38;3.97;;;;;;;34.08;28.81;99905.13;5130103;27;20039;-75
2022/08/06 11:49:28;;;;;;;6.75;3.90;;;;;;;34.15;28.78;99893.84;5135083;27;20066;-76
2022/08/06 11:51:59;;;;;;;5.45;3.70;;;;;;;34.13;29.41;99890.50;5133343;27;20047;-78
2022/08/06 11:54:36;;;;;;;6.38;4.20;;;;;;;34.31;28.28;99897.66;5133880;27;20051;-77
2022/08/06 11:57:25;;;;;;;5.55;3.75;;;;;;;34.13;28.63;99896.88;5135346;27;20043;-76
2022/08/06 12:00:14;;;;;;;5.10;4.10;;;;;;;34.31;28.73;99886.59;5134841;27;20119;-77
2022/08/06 12:02:55;;;;;;;4.82;3.70;;;;;;;34.52;28.71;99883.00;5133685;27;20051;-74
2022/08/06 12:05:42;;;;;;;5.57;3.70;;;;;;;34.59;27.75;99886.44;5133682;27;20083;-75
2022/08/06 12:08:28;;;;;;;6.20;3.92;;;;;;;34.56;27.97;99884.19;5133801;27;20046;-75
2022/08/06 12:11:29;;;;;;;6.35;4.25;;;;;;;34.75;27.69;99894.94;5132403;27;20074;-74
2022/08/06 12:14:05;;;;;;;4.63;3.70;;;;;;;34.69;28.20;99891.25;5132180;28;20051;-75
2022/08/06 12:16:55;;;;;;;4.63;3.72;;;;;;;34.68;28.52;99887.66;5133542;28;20043;-76
2022/08/06 12:19:31;;;;;;;6.68;4.30;;;;;;;34.75;31.48;99881.09;5132260;27;20472;-75
2022/08/06 12:22:01;;;;;;;7.60;4.90;;;;;;;34.77;32.53;99876.94;5132937;27;20065;-74
2022/08/06 12:24:33;;;;;;;7.65;5.07;;;;;;;34.70;33.02;99868.81;5132510;27;20039;-75
2022/08/06 12:27:22;;;;;;;12.90;5.68;;;;;;;34.71;33.34;99887.13;5129541;28;20104;-75
2022/08/06 12:29:57;;;;;;;13.02;6.45;;;;;;;34.50;34.45;99882.44;5135917;27;20035;-79
2022/08/06 12:32:28;;;;;;;8.20;5.93;;;;;;;34.59;33.39;99878.13;5136896;28;20055;-84